Time;durP1;ratioP1;P1;durP2;ratioP2;P2;SDS_P1;SDS_P2;PMS_P1;PMS_P2;Temp;Humidity;BMP_temperature;BMP_pressure;BME280_temperature;BME280_humidity;BME280_pressure;Samples;Min_cycle;Max_cycle;Signal;HPM_P1;HPM_P2
2023/07/28 00:01:52;;;;;;;3.43;2.37;;;;;;;20.18;100.00;99504.31;5026058;28;20599;-76
2023/07/28 00:04:17;;;;;;;3.10;2.80;;;;;;;20.16;100.00;99496.53;5020520;28;20214;-75
2023/07/28 00:06:42;;;;;;;2.70;2.50;;;;;;;20.16;100.00;99498.31;5022570;28;20257;-75
2023/07/28 00:09:08;;;;;;;2.83;2.63;;;;;;;20.14;100.00;99508.91;5029948;28;20709;-75
2023/07/28 00:11:33;;;;;;;2.63;2.43;;;;;;;20.12;100.00;99492.38;5022238;28;20199;-76
2023/07/28 00:13:58;;;;;;;3.67;3.10;;;;;;;20.11;100.00;99493.34;5025054;28;20223;-75
2023/07/28 00:16:24;;;;;;;3.47;2.73;;;;;;;20.09;100.00;99496.06;5022564;28;20199;-76
2023/07/28 00:18:49;;;;;;;3.00;2.70;;;;;;;20.08;100.00;99488.28;5026504;28;20210;-76
2023/07/28 00:21:14;;;;;;;4.03;2.77;;;;;;;20.06;100.00;99485.72;5017333;28;20215;-76
2023/07/28 00:23:40;;;;;;;3.07;2.87;;;;;;;20.04;100.00;99495.47;5020375;28;20203;-75
2023/07/28 00:26:06;;;;;;;3.03;2.57;;;;;;;20.03;100.00;99483.31;5014785;28;20186;-75
2023/07/28 00:28:31;;;;;;;2.50;2.30;;;;;;;20.03;100.00;99485.09;5019932;28;22367;-76
2023/07/28 00:30:56;;;;;;;2.90;2.70;;;;;;;20.03;100.00;99479.84;5013153;28;20222;-76
2023/07/28 00:33:22;;;;;;;3.23;3.03;;;;;;;20.02;100.00;99476.38;5026596;28;20222;-75
2023/07/28 00:35:47;;;;;;;3.03;2.83;;;;;;;20.02;100.00;99472.88;5024118;28;20283;-75
2023/07/28 00:38:12;;;;;;;2.90;2.70;;;;;;;20.00;100.00;99478.25;5021752;28;20694;-76
2023/07/28 00:40:38;;;;;;;3.10;2.80;;;;;;;19.99;100.00;99481.81;5019707;28;20219;-75
2023/07/28 00:43:03;;;;;;;3.47;2.70;;;;;;;19.99;100.00;99475.69;5018358;28;20188;-76
2023/07/28 00:45:30;;;;;;;3.17;2.97;;;;;;;19.96;100.00;99468.88;5021235;28;20189;-75
2023/07/28 00:47:59;;;;;;;2.93;2.63;;;;;;;19.94;100.00;99468.97;5027458;28;20191;-76
2023/07/28 00:50:25;;;;;;;2.90;2.70;;;;;;;19.93;100.00;99471.66;5021245;28;20206;-75
2023/07/28 00:52:51;;;;;;;3.10;2.83;;;;;;;19.92;100.00;99473.47;5017885;28;20241;-76
2023/07/28 00:55:16;;;;;;;2.83;2.63;;;;;;;19.89;100.00;99481.53;5015411;28;20191;-76
2023/07/28 00:57:42;;;;;;;3.10;2.80;;;;;;;19.87;100.00;99487.81;5023407;28;20199;-75
2023/07/28 01:00:08;;;;;;;3.10;2.80;;;;;;;19.83;100.00;99486.28;5017275;28;20264;-76
2023/07/28 01:02:34;;;;;;;3.10;2.90;;;;;;;19.77;100.00;99488.31;5013433;28;20180;-75
2023/07/28 01:04:59;;;;;;;2.70;2.50;;;;;;;19.71;100.00;99482.59;5018392;28;20341;-75
2023/07/28 01:07:46;;;;;;;2.67;2.47;;;;;;;19.64;100.00;99479.50;5021467;28;20186;-75
2023/07/28 01:10:17;;;;;;;2.90;2.70;;;;;;;19.57;100.00;99486.88;5015290;28;20213;-75
2023/07/28 01:12:42;;;;;;;2.50;2.33;;;;;;;19.52;100.00;99491.56;5025367;28;20194;-76
2023/07/28 01:15:08;;;;;;;3.00;2.70;;;;;;;19.47;100.00;99489.22;5014966;28;20194;-75
2023/07/28 01:17:33;;;;;;;2.90;2.70;;;;;;;19.43;100.00;99482.47;5026003;28;20191;-76
2023/07/28 01:19:58;;;;;;;2.80;2.60;;;;;;;19.39;100.00;99480.09;5018912;28;20296;-78
2023/07/28 01:22:58;;;;;;;2.70;2.50;;;;;;;19.38;100.00;99486.28;5017451;28;20604;-75
2023/07/28 01:25:42;;;;;;;3.00;2.80;;;;;;;19.34;100.00;99491.72;5013299;28;20187;-75
2023/07/28 01:28:07;;;;;;;2.57;2.37;;;;;;;19.33;100.00;99492.66;5026886;28;20209;-75
2023/07/28 01:30:33;;;;;;;3.23;2.90;;;;;;;19.32;100.00;99490.09;5025136;28;20207;-76
2023/07/28 01:32:58;;;;;;;2.80;2.60;;;;;;;19.33;100.00;99497.03;5023903;28;20201;-75
2023/07/28 01:35:25;;;;;;;3.47;3.17;;;;;;;19.33;100.00;99492.66;5024771;28;20251;-75
2023/07/28 01:37:51;;;;;;;2.83;2.63;;;;;;;19.32;100.00;99490.09;5022571;28;20216;-75
2023/07/28 01:40:17;;;;;;;2.70;2.50;;;;;;;19.32;100.00;99490.97;5022356;28;20231;-76
2023/07/28 01:42:43;;;;;;;3.03;2.83;;;;;;;19.32;100.00;99495.34;5021379;28;20275;-74
2023/07/28 01:45:09;;;;;;;2.80;2.60;;;;;;;19.31;100.00;99491.91;5014962;28;20285;-76
2023/07/28 01:47:34;;;;;;;3.10;2.90;;;;;;;19.30;100.00;99484.09;5024057;28;20201;-75
2023/07/28 01:49:59;;;;;;;2.53;2.37;;;;;;;19.29;100.00;99478.03;5017211;28;20215;-77
2023/07/28 01:52:25;;;;;;;2.70;2.50;;;;;;;19.30;100.00;99486.72;5025970;28;20772;-75
2023/07/28 01:54:50;;;;;;;3.50;2.70;;;;;;;19.30;100.00;99486.72;5023588;28;20910;-75
2023/07/28 01:57:15;;;;;;;3.10;2.90;;;;;;;19.28;100.00;99493.88;5024920;28;20713;-75
2023/07/28 01:59:41;;;;;;;2.70;2.50;;;;;;;19.28;100.00;99494.69;5025356;28;20660;-75
2023/07/28 02:02:06;;;;;;;3.87;3.00;;;;;;;19.28;100.00;99496.50;5021419;28;20223;-75
2023/07/28 02:04:31;;;;;;;3.53;3.23;;;;;;;19.25;100.00;99500.13;5026709;28;20202;-75
2023/07/28 02:06:57;;;;;;;3.17;2.97;;;;;;;19.24;100.00;99494.97;5022591;28;20225;-76
2023/07/28 02:09:22;;;;;;;2.90;2.70;;;;;;;19.21;100.00;99490.72;5012648;28;20235;-75
2023/07/28 02:11:47;;;;;;;2.80;2.60;;;;;;;19.21;100.00;99495.13;5021515;28;20297;-75
2023/07/28 02:14:13;;;;;;;2.90;2.70;;;;;;;19.20;100.00;99489.06;5023862;28;20524;-75
2023/07/28 02:16:41;;;;;;;3.10;2.90;;;;;;;19.19;100.00;99490.00;5015203;28;20192;-76
2023/07/28 02:19:07;;;;;;;3.83;3.43;;;;;;;19.17;100.00;99487.44;5018977;28;20199;-74
2023/07/28 02:21:33;;;;;;;2.80;2.60;;;;;;;19.15;100.00;99494.53;5019451;28;20251;-75
2023/07/28 02:23:58;;;;;;;2.90;2.70;;;;;;;19.14;100.00;99497.28;5019667;28;20211;-75
2023/07/28 02:26:26;;;;;;;2.10;2.00;;;;;;;19.13;100.00;99503.44;5022545;28;20226;-75
2023/07/28 02:28:51;;;;;;;2.70;2.50;;;;;;;19.13;100.00;99495.56;5025893;28;20663;-75
2023/07/28 02:31:17;;;;;;;3.43;3.13;;;;;;;19.12;100.00;99502.63;5019242;28;20209;-75
2023/07/28 02:33:42;;;;;;;3.30;3.00;;;;;;;19.10;100.00;99509.72;5030839;28;20224;-75
2023/07/28 02:36:08;;;;;;;3.57;3.27;;;;;;;19.08;100.00;99506.34;5026376;28;20242;-76
2023/07/28 02:38:33;;;;;;;2.90;2.70;;;;;;;19.07;100.00;99503.78;5023518;28;20286;-75
2023/07/28 02:40:59;;;;;;;2.87;2.67;;;;;;;19.06;100.00;99496.88;5022387;28;20214;-75
2023/07/28 02:43:24;;;;;;;3.30;3.00;;;;;;;19.03;100.00;99506.59;5031104;28;20702;-76
2023/07/28 02:45:57;;;;;;;3.10;2.90;;;;;;;19.02;100.00;99510.16;5019024;28;20274;-76
2023/07/28 02:48:23;;;;;;;3.83;3.00;;;;;;;19.01;100.00;99523.34;5025219;28;20275;-75
2023/07/28 02:50:50;;;;;;;3.00;2.80;;;;;;;19.01;100.00;99536.44;5027682;28;21008;-75
2023/07/28 02:53:16;;;;;;;3.30;3.00;;;;;;;19.00;100.00;99540.84;5022163;28;20197;-76
2023/07/28 02:55:46;;;;;;;3.10;2.90;;;;;;;19.01;100.00;99536.44;5020533;28;20279;-74
2023/07/28 02:58:11;;;;;;;2.87;2.67;;;;;;;19.00;100.00;99543.47;5019799;28;20197;-76
2023/07/28 03:00:38;;;;;;;3.03;2.83;;;;;;;19.00;100.00;99542.63;5019187;28;20226;-75
2023/07/28 03:03:04;;;;;;;3.10;2.90;;;;;;;18.99;100.00;99547.03;5027964;28;20184;-76
2023/07/28 03:05:31;;;;;;;3.10;2.90;;;;;;;18.99;100.00;99551.41;5019098;28;20653;-76
2023/07/28 03:07:56;;;;;;;3.40;3.10;;;;;;;18.98;100.00;99545.34;5013898;28;20548;-76
2023/07/28 03:10:22;;;;;;;3.07;2.87;;;;;;;18.99;100.00;99548.78;5022643;28;20206;-75
2023/07/28 03:12:47;;;;;;;3.30;3.10;;;;;;;18.98;100.00;99547.13;5017141;28;20206;-77
2023/07/28 03:15:12;;;;;;;3.30;3.07;;;;;;;18.98;100.00;99557.63;5027467;28;20574;-75
2023/07/28 03:17:38;;;;;;;3.57;3.20;;;;;;;19.00;100.00;99553.09;5018034;28;20311;-76
2023/07/28 03:20:04;;;;;;;4.30;3.10;;;;;;;18.98;100.00;99550.59;5021192;28;20705;-75
2023/07/28 03:22:30;;;;;;;3.80;3.50;;;;;;;18.96;100.00;99546.38;5019996;28;20183;-75
2023/07/28 03:24:55;;;;;;;4.43;3.20;;;;;;;18.95;100.00;99558.63;5018819;28;20183;-75
2023/07/28 03:27:21;;;;;;;3.77;3.47;;;;;;;18.94;100.00;99549.06;5024507;28;20194;-75
2023/07/28 03:29:46;;;;;;;3.30;3.10;;;;;;;18.94;100.00;99564.78;5018436;28;20286;-75
2023/07/28 03:32:11;;;;;;;3.97;3.57;;;;;;;18.93;100.00;99564.84;5022359;28;20185;-74
2023/07/28 03:34:37;;;;;;;3.07;2.87;;;;;;;18.94;100.00;99564.78;5018509;28;20201;-76
2023/07/28 03:37:03;;;;;;;2.80;2.60;;;;;;;18.93;100.00;99557.00;5020816;28;20227;-76
2023/07/28 03:39:29;;;;;;;2.90;2.70;;;;;;;18.94;100.00;99563.91;5028252;28;20190;-76
2023/07/28 03:41:55;;;;;;;3.47;3.17;;;;;;;18.95;100.00;99570.88;5018726;28;20225;-76
2023/07/28 03:44:20;;;;;;;3.37;3.07;;;;;;;18.95;100.00;99568.28;5027700;28;20572;-75
2023/07/28 03:46:45;;;;;;;3.60;3.40;;;;;;;18.94;100.00;99562.16;5025731;28;20286;-76
2023/07/28 03:49:11;;;;;;;4.03;3.67;;;;;;;18.92;100.00;99561.38;5021826;28;20217;-76
2023/07/28 03:51:36;;;;;;;3.50;3.23;;;;;;;18.91;100.00;99543.13;5026182;28;20205;-75
2023/07/28 03:54:02;;;;;;;3.53;3.30;;;;;;;18.91;100.00;99549.19;5018219;28;20186;-76
2023/07/28 03:56:28;;;;;;;3.17;2.97;;;;;;;18.92;100.00;99539.56;5024643;28;20187;-77
2023/07/28 03:58:54;;;;;;;3.43;3.13;;;;;;;18.92;100.00;99553.50;5025822;28;20175;-76
2023/07/28 04:01:21;;;;;;;3.50;3.20;;;;;;;18.91;100.00;99541.31;5020574;28;20295;-75
2023/07/28 04:03:46;;;;;;;3.53;3.27;;;;;;;18.92;100.00;99553.50;5021239;28;20607;-76
2023/07/28 04:06:12;;;;;;;3.33;3.03;;;;;;;18.92;100.00;99558.75;5015060;28;20186;-76
2023/07/28 04:08:37;;;;;;;4.23;3.93;;;;;;;18.92;100.00;99556.13;5024929;28;20190;-76
2023/07/28 04:11:03;;;;;;;4.20;3.80;;;;;;;18.91;100.00;99561.47;5013393;28;20202;-75
2023/07/28 04:13:28;;;;;;;3.90;3.60;;;;;;;18.87;100.00;99566.88;5022549;28;20220;-75
2023/07/28 04:15:53;;;;;;;4.47;4.07;;;;;;;18.84;100.00;99564.41;5021768;28;20182;-75
2023/07/28 04:18:20;;;;;;;4.60;4.20;;;;;;;18.82;100.00;99565.44;5025424;28;20183;-76
2023/07/28 04:20:46;;;;;;;3.60;3.33;;;;;;;18.79;100.00;99569.09;5018751;28;20238;-75
2023/07/28 04:23:11;;;;;;;4.50;4.10;;;;;;;18.79;100.00;99565.59;5026021;28;20211;-76
2023/07/28 04:25:36;;;;;;;4.33;4.03;;;;;;;18.79;100.00;99568.22;5039663;28;20249;-76
2023/07/28 04:28:02;;;;;;;6.97;4.70;;;;;;;18.78;100.00;99564.78;5033177;28;20184;-75
2023/07/28 04:30:27;;;;;;;4.53;3.90;;;;;;;18.77;100.00;99565.69;5016756;28;20228;-76
2023/07/28 04:32:52;;;;;;;4.90;4.50;;;;;;;18.76;100.00;99550.91;5019630;28;20194;-76
2023/07/28 04:35:18;;;;;;;5.17;4.77;;;;;;;18.74;100.00;99564.09;5016585;28;20201;-74
2023/07/28 04:37:43;;;;;;;5.97;5.30;;;;;;;18.74;100.00;99563.25;5019684;28;20245;-75
2023/07/28 04:40:09;;;;;;;5.27;4.77;;;;;;;18.73;100.00;99567.66;5024703;28;20235;-75
2023/07/28 04:42:36;;;;;;;5.77;5.17;;;;;;;18.71;100.00;99574.75;5018698;28;20232;-75
2023/07/28 04:45:01;;;;;;;4.80;4.40;;;;;;;18.70;100.00;99577.44;5017042;28;20221;-75
2023/07/28 04:47:26;;;;;;;5.07;4.53;;;;;;;18.68;100.00;99576.69;5025479;28;20642;-76
2023/07/28 04:49:52;;;;;;;6.03;5.43;;;;;;;18.68;100.00;99582.75;5016112;28;20602;-75
2023/07/28 04:52:17;;;;;;;6.37;5.27;;;;;;;18.65;100.00;99577.69;5019240;28;20268;-77
2023/07/28 04:54:42;;;;;;;7.03;5.50;;;;;;;18.63;100.00;99576.09;5017908;28;20273;-74
2023/07/28 04:57:08;;;;;;;5.80;5.27;;;;;;;18.61;100.00;99578.78;5024514;28;20186;-75
2023/07/28 04:59:33;;;;;;;5.60;5.10;;;;;;;18.60;100.00;99582.34;5019794;28;20196;-75
2023/07/28 05:01:58;;;;;;;5.87;5.27;;;;;;;18.61;100.00;99591.88;5014347;28;20204;-76
2023/07/28 05:04:24;;;;;;;5.47;5.07;;;;;;;18.62;100.00;99606.66;5020737;28;20192;-76
2023/07/28 05:06:49;;;;;;;5.73;5.23;;;;;;;18.62;100.00;99600.59;5025289;28;20185;-75
2023/07/28 05:09:14;;;;;;;6.10;5.50;;;;;;;18.64;100.00;99601.38;5026910;28;20214;-75
2023/07/28 05:11:40;;;;;;;6.20;5.60;;;;;;;18.62;100.00;99604.03;5021338;28;20203;-77
2023/07/28 05:14:08;;;;;;;5.80;5.20;;;;;;;18.62;100.00;99596.19;5016714;28;20939;-76
2023/07/28 05:16:34;;;;;;;6.10;5.50;;;;;;;18.61;100.00;99593.66;5019952;28;20182;-75
2023/07/28 05:19:00;;;;;;;6.17;5.57;;;;;;;18.61;100.00;99604.97;5016096;28;20191;-75
2023/07/28 05:21:25;;;;;;;6.03;5.53;;;;;;;18.63;100.00;99600.50;5024986;28;20443;-75
2023/07/28 05:23:51;;;;;;;5.60;5.17;;;;;;;18.68;100.00;99608.13;5020695;28;20279;-75
2023/07/28 05:26:16;;;;;;;6.30;5.50;;;;;;;18.66;100.00;99599.50;5025691;28;20206;-75
2023/07/28 05:28:41;;;;;;;5.20;4.80;;;;;;;18.68;100.00;99605.53;5021328;28;20254;-75
2023/07/28 05:31:07;;;;;;;5.23;4.73;;;;;;;18.65;100.00;99608.28;5012688;28;20202;-74
2023/07/28 05:33:33;;;;;;;5.00;4.60;;;;;;;18.64;100.00;99604.81;5010482;28;20273;-75
2023/07/28 05:36:05;;;;;;;5.00;4.60;;;;;;;18.65;100.00;99603.88;5016374;28;20224;-75
2023/07/28 05:38:30;;;;;;;4.93;4.53;;;;;;;18.66;100.00;99613.44;5025873;28;20290;-75
2023/07/28 05:40:57;;;;;;;5.37;4.87;;;;;;;18.70;100.00;99622.84;5019839;28;20735;-74
2023/07/28 05:43:25;;;;;;;5.37;4.97;;;;;;;18.70;100.00;99616.75;5015663;28;20209;-74
2023/07/28 05:45:50;;;;;;;5.80;5.07;;;;;;;18.71;100.00;99629.78;5017121;28;20184;-75
2023/07/28 05:48:15;;;;;;;5.03;4.63;;;;;;;18.71;100.00;99628.91;5022699;28;20203;-75
2023/07/28 05:50:41;;;;;;;4.83;4.40;;;;;;;18.70;100.00;99635.94;5030157;28;20225;-76
2023/07/28 05:53:07;;;;;;;5.40;4.90;;;;;;;18.68;100.00;99636.97;5021075;28;20189;-75
2023/07/28 05:55:33;;;;;;;5.10;4.70;;;;;;;18.65;100.00;99639.75;5018947;28;20189;-75
2023/07/28 05:57:58;;;;;;;5.73;5.23;;;;;;;18.64;100.00;99641.50;5021091;28;20297;-75
2023/07/28 06:00:26;;;;;;;5.90;5.30;;;;;;;18.65;100.00;99647.59;5018051;28;20267;-75
2023/07/28 06:02:52;;;;;;;5.37;4.97;;;;;;;18.65;100.00;99656.31;5021179;28;20657;-76
2023/07/28 06:05:17;;;;;;;5.50;5.00;;;;;;;18.67;100.00;99645.75;5020478;28;20280;-76
2023/07/28 06:07:43;;;;;;;5.00;4.60;;;;;;;18.71;100.00;99645.50;5021485;28;20962;-77
2023/07/28 06:10:08;;;;;;;5.23;4.83;;;;;;;18.76;100.00;99642.63;5012810;28;20676;-75
2023/07/28 06:12:34;;;;;;;5.00;4.60;;;;;;;18.82;100.00;99649.31;5019546;28;20202;-76
2023/07/28 06:14:59;;;;;;;4.90;4.50;;;;;;;18.86;100.00;99649.06;5024403;28;20214;-76
2023/07/28 06:17:27;;;;;;;4.17;3.87;;;;;;;18.91;100.00;99640.94;5015407;28;20220;-77
2023/07/28 06:19:52;;;;;;;4.67;4.23;;;;;;;18.96;100.00;99640.75;5021594;28;20202;-78
2023/07/28 06:22:17;;;;;;;4.63;3.83;;;;;;;19.01;100.00;99649.19;5015877;28;20270;-76
2023/07/28 06:24:43;;;;;;;4.47;4.07;;;;;;;19.05;100.00;99645.50;5021215;28;20209;-76
2023/07/28 06:27:09;;;;;;;3.87;3.57;;;;;;;19.08;100.00;99649.72;5015143;28;20183;-75
2023/07/28 06:29:34;;;;;;;4.07;3.67;;;;;;;19.08;100.00;99649.72;5019920;28;20208;-75
2023/07/28 06:32:00;;;;;;;3.80;3.50;;;;;;;19.05;100.00;99650.72;5021490;28;20540;-76
2023/07/28 06:34:25;;;;;;;3.93;3.60;;;;;;;19.02;100.00;99653.50;5014534;28;20274;-76
2023/07/28 06:36:51;;;;;;;4.33;3.60;;;;;;;18.99;100.00;99649.28;5021179;28;20210;-77
2023/07/28 06:39:16;;;;;;;3.67;3.37;;;;;;;19.01;100.00;99657.06;5010800;28;20251;-76
2023/07/28 06:41:41;;;;;;;3.73;3.43;;;;;;;19.01;100.00;99665.78;5019191;28;20250;-76
2023/07/28 06:44:09;;;;;;;4.10;3.70;;;;;;;19.00;100.00;99665.84;5022714;28;20277;-76
2023/07/28 06:46:35;;;;;;;3.77;3.43;;;;;;;18.99;100.00;99666.78;5026596;28;20324;-76
2023/07/28 06:49:01;;;;;;;3.97;3.60;;;;;;;18.99;100.00;99669.41;5028806;28;20660;-76
2023/07/28 06:51:27;;;;;;;3.97;3.20;;;;;;;19.00;100.00;99674.59;5022234;28;20269;-77
2023/07/28 06:53:52;;;;;;;3.50;3.20;;;;;;;19.01;100.00;99672.78;5016780;28;20724;-76
2023/07/28 06:56:17;;;;;;;3.67;3.37;;;;;;;19.02;100.00;99683.22;5021321;28;20652;-76
2023/07/28 06:58:43;;;;;;;4.20;3.03;;;;;;;18.99;100.00;99674.66;5028931;28;20268;-77
2023/07/28 07:01:10;;;;;;;2.90;2.70;;;;;;;18.98;100.00;99678.22;5017419;28;20207;-76
2023/07/28 07:03:36;;;;;;;3.27;2.87;;;;;;;18.97;100.00;99677.38;5013936;28;20190;-76
2023/07/28 07:06:01;;;;;;;3.27;2.67;;;;;;;18.97;100.00;99684.41;5020509;28;20195;-76
2023/07/28 07:08:27;;;;;;;2.80;2.60;;;;;;;18.98;100.00;99686.09;5021981;28;20326;-76
2023/07/28 07:10:52;;;;;;;2.87;2.53;;;;;;;19.00;100.00;99687.69;5019995;28;20559;-77
2023/07/28 07:13:18;;;;;;;2.50;2.30;;;;;;;19.02;100.00;99695.47;5022583;28;20245;-77
2023/07/28 07:15:44;;;;;;;3.40;2.20;;;;;;;19.04;100.00;99698.88;5020494;28;20194;-76
2023/07/28 07:18:09;;;;;;;2.10;1.90;;;;;;;19.04;100.00;99697.09;5022157;28;20202;-75
2023/07/28 07:20:37;;;;;;;3.00;2.53;;;;;;;19.07;100.00;99697.84;5023198;28;20733;-76
2023/07/28 07:23:06;;;;;;;2.57;2.37;;;;;;;19.05;100.00;99700.56;5009313;28;20647;-76
2023/07/28 07:25:32;;;;;;;2.53;2.33;;;;;;;19.07;100.00;99701.31;5025137;28;20182;-75
2023/07/28 07:27:57;;;;;;;3.00;2.60;;;;;;;19.12;100.00;99695.81;5019291;28;20190;-76
2023/07/28 07:30:23;;;;;;;3.50;2.60;;;;;;;19.21;100.00;99695.31;5030338;28;20222;-76
2023/07/28 07:32:48;;;;;;;2.80;2.60;;;;;;;19.33;100.00;99712.16;5027587;28;20182;-76
2023/07/28 07:35:13;;;;;;;2.83;2.63;;;;;;;19.41;100.00;99704.75;5014313;28;20723;-75
2023/07/28 07:37:40;;;;;;;2.63;2.40;;;;;;;19.48;100.00;99706.06;5021955;28;20761;-75
2023/07/28 07:40:07;;;;;;;3.87;2.97;;;;;;;19.54;100.00;99710.13;5012166;28;20768;-75
2023/07/28 07:42:49;;;;;;;3.50;3.20;;;;;;;19.58;100.00;99716.91;5017203;28;20194;-74
2023/07/28 07:45:15;;;;;;;3.63;3.33;;;;;;;19.66;100.00;99711.22;5021352;28;20203;-74
2023/07/28 07:47:41;;;;;;;3.47;3.20;;;;;;;19.88;100.00;99720.56;5022051;28;20188;-75
2023/07/28 07:50:11;;;;;;;3.37;3.07;;;;;;;20.18;100.00;99709.22;5028709;28;20215;-75
2023/07/28 07:52:38;;;;;;;3.33;3.03;;;;;;;20.41;100.00;99708.72;5032056;28;20218;-75
2023/07/28 07:55:04;;;;;;;5.00;3.30;;;;;;;20.63;100.00;99714.47;5014865;28;20192;-75
2023/07/28 07:57:32;;;;;;;3.20;2.87;;;;;;;20.81;100.00;99712.53;5027847;28;20195;-75
2023/07/28 07:59:58;;;;;;;2.50;2.30;;;;;;;20.96;100.00;99716.00;5018379;28;20203;-74
2023/07/28 08:02:24;;;;;;;2.80;2.60;;;;;;;21.31;100.00;99715.59;5029704;28;20222;-75
2023/07/28 08:04:51;;;;;;;2.83;2.63;;;;;;;21.54;100.00;99723.81;5023216;28;20207;-76
2023/07/28 08:07:17;;;;;;;3.97;2.43;;;;;;;21.74;100.00;99723.41;5021062;28;20196;-76
2023/07/28 08:09:42;;;;;;;2.67;2.47;;;;;;;22.19;100.00;99723.13;5028245;28;20669;-76
2023/07/28 08:12:08;;;;;;;2.67;2.47;;;;;;;22.39;100.00;99718.31;5022826;28;20728;-76
2023/07/28 08:14:34;;;;;;;2.80;2.60;;;;;;;22.64;100.00;99733.34;5028994;28;20274;-76
2023/07/28 08:16:59;;;;;;;3.30;2.50;;;;;;;22.67;100.00;99733.13;5017901;28;20201;-77
2023/07/28 08:19:24;;;;;;;2.83;2.53;;;;;;;22.69;100.00;99728.56;5017382;28;20235;-76
2023/07/28 08:21:50;;;;;;;2.93;2.63;;;;;;;22.59;100.00;99726.69;5022247;28;20243;-76
2023/07/28 08:24:16;;;;;;;3.07;2.80;;;;;;;22.55;100.00;99735.75;5015269;28;20303;-75
2023/07/28 08:26:41;;;;;;;2.80;2.60;;;;;;;22.67;100.00;99730.50;5025178;28;20188;-75
2023/07/28 08:29:06;;;;;;;3.07;2.77;;;;;;;22.84;100.00;99734.59;5019017;28;20196;-76
2023/07/28 08:31:32;;;;;;;3.17;2.83;;;;;;;23.05;100.00;99733.19;5015801;28;20302;-75
2023/07/28 08:33:57;;;;;;;3.20;2.90;;;;;;;23.04;100.00;99740.28;5025960;28;20219;-76
2023/07/28 08:36:22;;;;;;;2.80;2.60;;;;;;;23.10;100.00;99733.72;5023585;28;20234;-75
2023/07/28 08:38:48;;;;;;;2.53;2.33;;;;;;;23.23;100.00;99731.06;5022155;28;20219;-76
2023/07/28 08:41:14;;;;;;;3.07;2.80;;;;;;;23.41;100.00;99735.06;5027044;28;20219;-76
2023/07/28 08:43:40;;;;;;;5.33;2.50;;;;;;;23.43;100.00;99737.59;5020846;28;20226;-75
2023/07/28 08:46:05;;;;;;;3.10;2.80;;;;;;;23.55;100.00;99739.34;5025685;28;20218;-76
2023/07/28 08:48:30;;;;;;;3.37;2.80;;;;;;;23.80;100.00;99728.81;5014649;28;20222;-76
2023/07/28 08:50:56;;;;;;;4.50;3.53;;;;;;;23.55;100.00;99733.22;5019085;28;21030;-77
2023/07/28 08:53:22;;;;;;;3.07;2.70;;;;;;;23.67;100.00;99734.94;5020932;28;20199;-76
2023/07/28 08:55:47;;;;;;;3.13;2.83;;;;;;;23.95;100.00;99735.59;5029766;28;20210;-75
2023/07/28 08:58:14;;;;;;;3.60;3.30;;;;;;;23.92;100.00;99734.97;5032701;28;20195;-76
2023/07/28 09:00:40;;;;;;;3.47;3.07;;;;;;;23.89;100.00;99736.91;5031096;28;20857;-76
2023/07/28 09:03:09;;;;;;;3.07;2.77;;;;;;;24.29;100.00;99741.00;5022315;28;20187;-75
2023/07/28 09:05:34;;;;;;;2.63;2.43;;;;;;;24.17;100.00;99734.00;5025724;28;20185;-79
2023/07/28 09:07:59;;;;;;;2.60;2.40;;;;;;;24.84;100.00;99743.09;5020940;28;20200;-76
2023/07/28 09:10:25;;;;;;;3.37;2.50;;;;;;;25.38;100.00;99741.50;5013151;28;21078;-76
2023/07/28 09:12:51;;;;;;;2.33;2.23;;;;;;;25.42;100.00;99737.66;5016155;28;20192;-75
2023/07/28 09:15:17;;;;;;;3.20;2.50;;;;;;;25.48;100.00;99739.00;5013644;28;20195;-77
2023/07/28 09:17:47;;;;;;;3.00;2.77;;;;;;;25.39;100.00;99737.88;5018847;28;20194;-78
2023/07/28 09:20:19;;;;;;;2.97;2.63;;;;;;;25.30;100.00;99727.19;5020743;28;20249;-75
2023/07/28 09:22:44;;;;;;;2.83;2.57;;;;;;;25.33;100.00;99732.25;5019847;28;20180;-77
2023/07/28 09:25:14;;;;;;;4.37;2.57;;;;;;;25.53;100.00;99741.25;5018178;28;20188;-77
2023/07/28 09:27:39;;;;;;;4.10;3.00;;;;;;;25.50;100.00;99733.56;5019869;28;20211;-77
2023/07/28 09:30:07;;;;;;;2.70;2.50;;;;;;;25.39;100.00;99737.03;5019778;28;20302;-77
2023/07/28 09:32:33;;;;;;;5.13;3.33;;;;;;;25.03;100.00;99729.25;5026446;28;20188;-77
2023/07/28 09:35:10;;;;;;;2.60;2.40;;;;;;;24.78;100.00;99730.31;5019227;28;20193;-75
2023/07/28 09:37:42;;;;;;;2.80;2.60;;;;;;;24.42;100.00;99718.94;5024086;28;20214;-76
2023/07/28 09:40:12;;;;;;;3.10;2.80;;;;;;;24.45;100.00;99718.69;5018476;28;20211;-77
2023/07/28 09:42:42;;;;;;;2.53;2.33;;;;;;;24.79;100.00;99718.78;5025683;28;20654;-75
2023/07/28 09:45:09;;;;;;;2.70;2.50;;;;;;;25.03;100.00;99721.31;5017402;28;20187;-77
2023/07/28 09:47:36;;;;;;;3.43;2.93;;;;;;;25.20;100.00;99727.06;5018284;28;20641;-77
2023/07/28 09:50:08;;;;;;;2.90;2.60;;;;;;;25.06;100.00;99728.16;5025245;28;20414;-77
2023/07/28 09:52:37;;;;;;;2.57;2.37;;;;;;;25.39;100.00;99724.66;5026929;28;20221;-76
2023/07/28 09:55:13;;;;;;;3.20;2.90;;;;;;;25.62;100.00;99727.25;5022081;28;20215;-76
2023/07/28 09:57:45;;;;;;;2.80;2.60;;;;;;;25.65;100.00;99727.00;5021442;28;20202;-77
2023/07/28 10:00:13;;;;;;;2.60;2.40;;;;;;;25.55;100.00;99734.88;5024673;28;20265;-77
2023/07/28 10:02:39;;;;;;;2.60;2.40;;;;;;;25.61;100.00;99730.88;5015243;28;20214;-77
2023/07/28 10:05:08;;;;;;;4.67;2.63;;;;;;;25.78;100.00;99726.00;5019146;28;20889;-77
2023/07/28 10:07:35;;;;;;;3.90;2.37;;;;;;;25.71;100.00;99730.97;5019543;28;20202;-76
2023/07/28 10:10:07;;;;;;;2.63;2.43;;;;;;;25.56;99.88;99727.78;5020487;28;20216;-77
2023/07/28 10:12:41;;;;;;;2.50;2.30;;;;;;;25.43;99.66;99733.22;5017155;28;20212;-76
2023/07/28 10:15:07;;;;;;;2.33;2.13;;;;;;;25.47;99.24;99724.06;5021314;28;20200;-77
2023/07/28 10:17:34;;;;;;;3.43;2.40;;;;;;;25.54;98.88;99735.00;5014547;28;20189;-77
2023/07/28 10:20:07;;;;;;;2.40;2.20;;;;;;;25.61;99.11;99730.03;5025377;28;20225;-77
2023/07/28 10:22:32;;;;;;;3.30;2.30;;;;;;;25.44;99.71;99734.03;5017425;28;20219;-76
2023/07/28 10:25:01;;;;;;;2.60;2.40;;;;;;;25.38;99.70;99724.75;5016139;28;20223;-78
2023/07/28 10:27:38;;;;;;;2.67;2.47;;;;;;;25.49;99.46;99729.22;5020160;28;20196;-76
2023/07/28 10:30:09;;;;;;;2.40;2.20;;;;;;;25.51;99.70;99736.06;5014778;28;20215;-77
2023/07/28 10:32:42;;;;;;;3.17;2.80;;;;;;;25.66;98.07;99734.00;5021039;28;20262;-77
2023/07/28 10:35:30;;;;;;;2.70;2.30;;;;;;;25.55;98.22;99734.03;5020114;28;20180;-77
2023/07/28 10:37:56;;;;;;;2.97;2.63;;;;;;;25.69;97.83;99738.19;5019913;28;20195;-76
2023/07/28 10:40:22;;;;;;;2.97;2.00;;;;;;;25.75;99.00;99742.16;5011930;28;20674;-76
2023/07/28 10:42:47;;;;;;;2.07;1.87;;;;;;;25.84;97.93;99739.59;5019559;28;20191;-76
2023/07/28 10:45:13;;;;;;;2.47;1.93;;;;;;;25.85;97.40;99743.94;5013179;28;20194;-76
2023/07/28 10:47:39;;;;;;;2.30;2.10;;;;;;;25.95;97.27;99737.84;5020460;28;20184;-78
2023/07/28 10:50:05;;;;;;;2.60;2.10;;;;;;;25.86;97.21;99744.78;5010315;28;20199;-77
2023/07/28 10:52:30;;;;;;;1.90;1.80;;;;;;;25.82;97.91;99741.53;5025511;28;20266;-77
2023/07/28 10:54:57;;;;;;;2.70;1.90;;;;;;;25.58;97.65;99746.19;5018743;28;20237;-78
2023/07/28 10:57:26;;;;;;;1.90;1.80;;;;;;;25.45;98.26;99744.53;5016256;28;20188;-77
2023/07/28 10:59:51;;;;;;;2.40;1.90;;;;;;;25.58;98.16;99751.47;5014999;28;20195;-77
2023/07/28 11:02:17;;;;;;;3.37;2.07;;;;;;;25.40;99.64;99744.88;5025212;28;20544;-78
2023/07/28 11:04:47;;;;;;;2.30;2.10;;;;;;;25.39;99.92;99748.47;5024704;28;20612;-76
2023/07/28 11:07:13;;;;;;;2.67;2.23;;;;;;;25.45;99.11;99756.91;5020544;28;20657;-77
2023/07/28 11:09:38;;;;;;;2.60;2.40;;;;;;;25.33;99.67;99754.25;5028610;28;20187;-76
2023/07/28 11:12:08;;;;;;;2.67;2.47;;;;;;;25.39;99.19;99760.88;5023166;28;20550;-78
2023/07/28 11:14:34;;;;;;;2.97;1.90;;;;;;;25.42;98.72;99755.38;5019713;28;20263;-77
2023/07/28 11:16:59;;;;;;;3.00;2.20;;;;;;;25.38;97.96;99757.38;5018417;28;20191;-77
2023/07/28 11:19:25;;;;;;;2.13;1.80;;;;;;;25.35;98.73;99754.13;5018559;28;20192;-77
2023/07/28 11:21:51;;;;;;;3.03;2.00;;;;;;;25.27;98.55;99760.03;5025708;28;20223;-77
2023/07/28 11:24:23;;;;;;;2.23;1.90;;;;;;;25.18;99.32;99766.06;5022703;28;20191;-77